createdAt,value
2018-07-01T00:00:34.514Z,83.0745
2018-07-01T00:01:39.374Z,82.6544
2018-07-01T00:02:44.834Z,82.1523
2018-07-01T00:03:50.255Z,83.8302
2018-07-01T00:04:55.694Z,83.8302
2018-07-01T00:06:01.147Z,82.8235
2018-07-01T00:07:06.292Z,83.5792
2018-07-01T00:08:10.881Z,83.5792
2018-07-01T00:09:15.763Z,82.8235
2018-07-01T00:10:21.046Z,82.4034
2018-07-01T00:11:26.494Z,82.6544
2018-07-01T00:12:31.623Z,82.4034
2018-07-01T00:13:36.812Z,83.8302
2018-07-01T00:14:41.979Z,83.0745
2018-07-01T00:15:47.660Z,82.6544
2018-07-01T00:16:53.108Z,83.0745
2018-07-01T00:17:58.751Z,83.8302
2018-07-01T00:19:03.417Z,83.0745
2018-07-01T00:20:08.873Z,82.8235
2018-07-01T00:21:14.059Z,81.7322
2018-07-01T00:22:19.744Z,82.1523
2018-07-01T00:23:24.659Z,82.6544
2018-07-01T00:24:30.314Z,81.9832
2018-07-01T00:25:35.189Z,82.8235
2018-07-01T00:26:40.631Z,82.8235
2018-07-01T00:27:46.291Z,82.6544
2018-07-01T00:28:51.444Z,82.8235
2018-07-01T00:29:56.889Z,83.5792
2018-07-01T00:31:02.055Z,82.6544
2018-07-01T00:32:06.674Z,82.1523
2018-07-01T00:33:11.827Z,82.1523
2018-07-01T00:34:16.946Z,82.6544
2018-07-01T00:35:22.103Z,82.4034
2018-07-01T00:36:28.056Z,82.6544
2018-07-01T00:37:33.539Z,83.0745
2018-07-01T00:38:38.708Z,81.9832
2018-07-01T00:39:43.894Z,84.0812
2018-07-01T00:40:49.332Z,82.8235
2018-07-01T00:41:54.487Z,81.7322
2018-07-01T00:43:00.190Z,83.0745
2018-07-01T00:44:05.085Z,82.6544
2018-07-01T00:45:10.246Z,82.8235
2018-07-01T00:46:15.532Z,81.7322
2018-07-01T00:47:20.905Z,83.5792
2018-07-01T00:48:41.285Z,82.1523
2018-07-01T00:49:46.458Z,82.8235
2018-07-01T00:50:51.844Z,82.6544
2018-07-01T00:51:57.355Z,82.6544
2018-07-01T00:53:01.944Z,82.8235
2018-07-01T00:54:06.545Z,82.4034
2018-07-01T00:55:11.424Z,82.1523
2018-07-01T00:56:16.314Z,82.6544
2018-07-01T00:57:21.482Z,83.0745
2018-07-01T00:58:26.609Z,82.8235
2018-07-01T00:59:32.066Z,82.4034
2018-07-01T01:00:37.382Z,83.0745
2018-07-01T01:01:42.822Z,81.9832
2018-07-01T01:02:47.702Z,83.0745
2018-07-01T01:03:53.123Z,82.8235
2018-07-01T01:04:58.284Z,82.6544
2018-07-01T01:06:03.479Z,82.6544
2018-07-01T01:07:09.228Z,82.6544
2018-07-01T01:08:14.118Z,82.6544
2018-07-01T01:09:19.296Z,83.0745
2018-07-01T01:10:25.013Z,83.0745
2018-07-01T01:11:30.468Z,82.8235
2018-07-01T01:12:36.125Z,82.4034
2018-07-01T01:13:41.287Z,83.0745
2018-07-01T01:14:45.907Z,82.8235
2018-07-01T01:15:50.820Z,84.3323
2018-07-01T01:16:55.961Z,83.5792
2018-07-01T01:18:01.405Z,82.4034
2018-07-01T01:19:06.814Z,81.9832
2018-07-01T01:20:12.268Z,81.9832
2018-07-01T01:21:17.728Z,82.1523
2018-07-01T01:22:23.422Z,82.6544
2018-07-01T01:23:28.589Z,82.4034
2018-07-01T01:24:33.707Z,81.9832
2018-07-01T01:25:39.164Z,81.9832
2018-07-01T01:26:44.039Z,81.4812
2018-07-01T01:27:49.547Z,82.6544
2018-07-01T01:28:54.985Z,82.6544
2018-07-01T01:30:00.433Z,82.6544
2018-07-01T01:31:05.837Z,81.9832
2018-07-01T01:32:11.293Z,81.7322
2018-07-01T01:33:16.454Z,82.1523
2018-07-01T01:34:22.115Z,82.1523
2018-07-01T01:35:27.295Z,82.1523
2018-07-01T01:36:33.193Z,82.4034
2018-07-01T01:37:38.373Z,81.7322
2018-07-01T01:38:43.831Z,82.1523
2018-07-01T01:39:49.667Z,81.9832
2018-07-01T01:40:54.850Z,81.4812
2018-07-01T01:42:00.294Z,81.7322
2018-07-01T01:43:06.085Z,82.1523
2018-07-01T01:44:11.528Z,82.1523
2018-07-01T01:45:16.408Z,82.1523
2018-07-01T01:46:21.845Z,82.8235
2018-07-01T01:47:27.008Z,81.7322
2018-07-01T01:48:32.639Z,81.7322
2018-07-01T01:49:37.840Z,82.6544
2018-07-01T01:50:42.700Z,82.6544
2018-07-01T01:51:48.606Z,82.4034
2018-07-01T01:52:53.489Z,82.1523
2018-07-01T01:53:58.649Z,80.4745
2018-07-01T01:55:03.943Z,83.0745
2018-07-01T01:56:09.107Z,82.6544
2018-07-01T01:57:14.275Z,82.6544
2018-07-01T01:58:19.980Z,83.0745
2018-07-01T01:59:25.425Z,82.8235
2018-07-01T02:00:30.669Z,82.8235
2018-07-01T02:01:36.133Z,82.1523
2018-07-01T02:02:41.591Z,82.6544
2018-07-01T02:03:47.283Z,82.6544
2018-07-01T02:04:52.165Z,82.8235
2018-07-01T02:05:57.602Z,82.6544
2018-07-01T02:07:02.620Z,82.6544
2018-07-01T02:08:07.211Z,82.1523
2018-07-01T02:09:11.799Z,82.1523
2018-07-01T02:10:17.599Z,82.6544
2018-07-01T02:11:22.466Z,82.4034
2018-07-01T02:12:28.083Z,82.1523
2018-07-01T02:13:33.243Z,82.4034
2018-07-01T02:14:38.426Z,81.7322
2018-07-01T02:15:44.124Z,82.1523
2018-07-01T02:16:49.607Z,82.6544
2018-07-01T02:17:54.773Z,82.6544
2018-07-01T02:18:59.931Z,82.6544
2018-07-01T02:20:05.385Z,82.1523
2018-07-01T02:21:09.977Z,82.8235
2018-07-01T02:22:15.118Z,82.4034
2018-07-01T02:23:20.283Z,82.4034
2018-07-01T02:24:40.786Z,81.7322
2018-07-01T02:25:45.664Z,81.9832
2018-07-01T02:26:50.836Z,81.4812
2018-07-01T02:27:56.279Z,82.6544
2018-07-01T02:29:01.730Z,81.9832
2018-07-01T02:30:06.035Z,82.6544
2018-07-01T02:31:11.839Z,81.9832
2018-07-01T02:32:17.313Z,81.7322
2018-07-01T02:33:22.470Z,82.1523
2018-07-01T02:34:27.490Z,81.9832
2018-07-01T02:35:33.459Z,81.9832
2018-07-01T02:36:39.059Z,81.4812
2018-07-01T02:37:43.934Z,81.7322
2018-07-01T02:38:49.081Z,81.4812
2018-07-01T02:39:54.605Z,81.2275
2018-07-01T02:40:59.775Z,82.1523
2018-07-01T02:42:04.632Z,80.9765
2018-07-01T02:43:10.337Z,81.7322
2018-07-01T02:44:15.497Z,81.2275
2018-07-01T02:45:20.946Z,80.4745
2018-07-01T02:46:26.109Z,80.7255
2018-07-01T02:47:31.267Z,80.2208
2018-07-01T02:48:36.776Z,80.7255
2018-07-01T02:49:41.655Z,80.7255
2018-07-01T02:50:46.824Z,80.2208
2018-07-01T02:51:52.226Z,80.7255
2018-07-01T02:52:57.399Z,80.9765
2018-07-01T02:54:02.563Z,80.7255
2018-07-01T02:55:08.261Z,80.9765
2018-07-01T02:56:13.701Z,80.4745
2018-07-01T02:57:18.861Z,79.7188
2018-07-01T02:58:24.702Z,79.9698
2018-07-01T02:59:29.594Z,79.8033
2018-07-01T03:00:34.642Z,79.5497
2018-07-01T03:01:40.082Z,79.7188
2018-07-01T03:02:44.957Z,79.9698
2018-07-01T03:03:50.662Z,80.2208
2018-07-01T03:04:55.833Z,80.2208
2018-07-01T03:06:01.267Z,80.2208
2018-07-01T03:07:06.269Z,79.5497
2018-07-01T03:08:11.449Z,79.8033
2018-07-01T03:09:16.882Z,80.4745
2018-07-01T03:10:22.626Z,79.9698
2018-07-01T03:11:27.808Z,79.9698
2018-07-01T03:12:33.902Z,79.2986
2018-07-01T03:13:39.049Z,79.8033
2018-07-01T03:14:44.213Z,79.2986
2018-07-01T03:15:49.900Z,79.2986
2018-07-01T03:16:55.084Z,79.9698
2018-07-01T03:18:00.252Z,80.2208
2018-07-01T03:19:05.677Z,80.2208
2018-07-01T03:20:11.170Z,80.2208
2018-07-01T03:21:16.329Z,79.9698
2018-07-01T03:22:22.130Z,79.9698
2018-07-01T03:23:27.585Z,79.8033
2018-07-01T03:24:33.387Z,79.9698
2018-07-01T03:25:38.549Z,79.8033
2018-07-01T03:26:43.996Z,79.9698
2018-07-01T03:27:49.547Z,79.5497
2018-07-01T03:28:54.438Z,79.2986
2018-07-01T03:29:59.333Z,79.2986
2018-07-01T03:31:04.777Z,79.8033
2018-07-01T03:32:09.660Z,79.5497
2018-07-01T03:33:15.105Z,78.5456
2018-07-01T03:34:20.514Z,79.2986
2018-07-01T03:35:25.964Z,79.8033
2018-07-01T03:36:31.424Z,79.2986
2018-07-01T03:37:36.879Z,78.5456
2018-07-01T03:38:42.033Z,79.5497
2018-07-01T03:39:47.298Z,79.0476
2018-07-01T03:40:52.470Z,79.8033
2018-07-01T03:41:57.634Z,79.5497
2018-07-01T03:43:02.774Z,79.5497
2018-07-01T03:44:07.638Z,79.7188
2018-07-01T03:45:13.082Z,78.2919
2018-07-01T03:46:18.337Z,78.5456
2018-07-01T03:47:23.493Z,78.0409
2018-07-01T03:48:28.763Z,78.7966
2018-07-01T03:49:34.024Z,79.5497
2018-07-01T03:50:39.463Z,77.7899
2018-07-01T03:51:45.071Z,78.5456
2018-07-01T03:52:49.649Z,78.2919
2018-07-01T03:53:54.821Z,78.2919
2018-07-01T03:54:59.678Z,78.5456
2018-07-01T03:56:04.886Z,76.8677
2018-07-01T03:57:09.763Z,77.7899
2018-07-01T03:58:15.608Z,77.7899
2018-07-01T03:59:20.485Z,78.7966
2018-07-01T04:00:26.503Z,77.5389
2018-07-01T04:01:32.004Z,77.5389
2018-07-01T04:02:37.448Z,78.0409
2018-07-01T04:03:42.597Z,77.3698
2018-07-01T04:04:47.787Z,77.5389
2018-07-01T04:05:52.951Z,77.1187
2018-07-01T04:06:58.478Z,77.2852
2018-07-01T04:08:03.094Z,76.6167
2018-07-01T04:09:07.995Z,77.7899
2018-07-01T04:10:13.547Z,76.8677
2018-07-01T04:11:18.718Z,77.1187
2018-07-01T04:12:23.894Z,77.2852
2018-07-01T04:13:43.941Z,78.0409
2018-07-01T04:14:49.385Z,76.8677
2018-07-01T04:15:55.225Z,77.1187
2018-07-01T04:17:00.384Z,76.6167
2018-07-01T04:18:05.834Z,77.1187
2018-07-01T04:19:11.629Z,76.363
2018-07-01T04:20:17.069Z,77.2852
2018-07-01T04:21:22.517Z,77.1187
2018-07-01T04:22:28.049Z,77.5389
2018-07-01T04:23:32.943Z,77.5389
2018-07-01T04:24:38.326Z,77.5389
2018-07-01T04:25:43.484Z,77.5389
2018-07-01T04:26:48.643Z,77.5389
2018-07-01T04:27:54.338Z,77.5389
2018-07-01T04:28:59.501Z,77.7899
2018-07-01T04:30:04.393Z,76.6167
2018-07-01T04:31:09.281Z,77.5389
2018-07-01T04:32:14.609Z,77.2852
2018-07-01T04:33:19.495Z,78.0409
2018-07-01T04:34:24.386Z,77.5389
2018-07-01T04:35:29.276Z,76.8677
2018-07-01T04:36:34.863Z,76.8677
2018-07-01T04:37:40.314Z,77.1187
2018-07-01T04:38:45.487Z,77.5389
2018-07-01T04:39:51.329Z,77.5389
2018-07-01T04:40:56.793Z,77.1187
2018-07-01T04:42:01.405Z,76.6167
2018-07-01T04:43:06.019Z,77.5389
2018-07-01T04:44:10.337Z,77.5389
2018-07-01T04:45:15.777Z,77.2852
2018-07-01T04:46:21.465Z,77.1187
2018-07-01T04:47:26.069Z,78.0409
2018-07-01T04:48:31.588Z,76.8677
2018-07-01T04:49:37.026Z,77.7899
2018-07-01T04:50:42.189Z,76.6167
2018-07-01T04:51:47.896Z,76.8677
2018-07-01T04:52:53.335Z,76.112
2018-07-01T04:53:58.222Z,76.363
2018-07-01T04:55:04.469Z,76.8677
2018-07-01T04:56:09.303Z,76.6167
2018-07-01T04:57:14.194Z,76.363
2018-07-01T04:58:20.023Z,75.61
2018-07-01T04:59:25.195Z,75.3589
2018-07-01T05:00:30.628Z,76.6167
2018-07-01T05:01:35.511Z,75.61
2018-07-01T05:02:40.664Z,75.861
2018-07-01T05:03:45.797Z,74.8543
2018-07-01T05:04:50.961Z,75.1053
2018-07-01T05:05:56.118Z,74.8543
2018-07-01T05:07:00.992Z,75.3589
2018-07-01T05:08:05.589Z,74.8543
2018-07-01T05:09:10.749Z,74.8543
2018-07-01T05:10:16.544Z,74.6878
2018-07-01T05:11:21.418Z,75.61
2018-07-01T05:12:27.340Z,74.6878
2018-07-01T05:13:32.514Z,74.6878
2018-07-01T05:14:37.383Z,75.1053
2018-07-01T05:15:42.619Z,75.1053
2018-07-01T05:16:47.798Z,75.3589
2018-07-01T05:17:53.232Z,74.8543
2018-07-01T05:18:58.791Z,75.3589
2018-07-01T05:20:03.400Z,74.6878
2018-07-01T05:21:08.854Z,74.8543
2018-07-01T05:22:14.472Z,75.861
2018-07-01T05:23:19.935Z,75.1053
2018-07-01T05:24:40.008Z,74.8543
2018-07-01T05:25:44.880Z,75.1053
2018-07-01T05:26:50.091Z,74.8543
2018-07-01T05:27:55.876Z,74.6032
2018-07-01T05:29:01.323Z,74.1831
2018-07-01T05:30:05.631Z,73.9321
2018-07-01T05:31:11.166Z,75.1053
2018-07-01T05:32:15.770Z,74.4341
2018-07-01T05:33:21.213Z,74.1831
2018-07-01T05:34:26.075Z,75.3589
2018-07-01T05:35:31.258Z,75.3589
2018-07-01T05:36:37.007Z,74.1831
2018-07-01T05:37:42.457Z,74.8543
2018-07-01T05:38:47.333Z,74.4341
2018-07-01T05:39:52.606Z,72.9254
2018-07-01T05:40:57.776Z,74.4341
2018-07-01T05:42:02.371Z,73.9321
2018-07-01T05:43:07.496Z,74.1831
2018-07-01T05:44:12.669Z,73.6811
2018-07-01T05:45:17.818Z,72.9254
2018-07-01T05:46:22.956Z,73.6811
2018-07-01T05:47:28.117Z,73.4301
2018-07-01T05:48:33.705Z,73.9321
2018-07-01T05:49:38.874Z,73.9321
2018-07-01T05:50:43.475Z,73.9321
2018-07-01T05:51:48.908Z,73.6811
2018-07-01T05:52:54.067Z,73.9321
2018-07-01T05:53:59.219Z,73.4301
2018-07-01T05:55:04.177Z,73.179
2018-07-01T05:56:09.618Z,73.9321
2018-07-01T05:57:15.438Z,73.4301
2018-07-01T05:58:21.182Z,73.9321
2018-07-01T05:59:26.053Z,73.6811
2018-07-01T06:00:31.654Z,74.1831
2018-07-01T06:01:37.106Z,73.4301
2018-07-01T06:02:42.279Z,72.6743
2018-07-01T06:03:47.971Z,72.6743
2018-07-01T06:04:53.129Z,72.4233
2018-07-01T06:05:58.570Z,72.1723
2018-07-01T06:07:03.183Z,72.6743
2018-07-01T06:08:08.076Z,72.6743
2018-07-01T06:09:13.225Z,72.6743
2018-07-01T06:10:18.399Z,72.6743
2018-07-01T06:11:23.593Z,71.9213
2018-07-01T06:12:29.267Z,71.9213
2018-07-01T06:13:34.160Z,72.1723
2018-07-01T06:14:39.304Z,72.6743
2018-07-01T06:15:44.716Z,71.9213
2018-07-01T06:16:50.827Z,72.1723
2018-07-01T06:17:56.139Z,71.9213
2018-07-01T06:19:01.840Z,71.7522
2018-07-01T06:20:06.712Z,71.9213
2018-07-01T06:21:12.150Z,72.4233
2018-07-01T06:22:17.712Z,71.5012
2018-07-01T06:23:22.585Z,71.7522
2018-07-01T06:24:28.096Z,71.2501
2018-07-01T06:25:32.982Z,72.1723
2018-07-01T06:26:37.864Z,71.5012
2018-07-01T06:27:43.426Z,71.9213
2018-07-01T06:28:48.030Z,71.7522
2018-07-01T06:29:53.200Z,72.6743
2018-07-01T06:30:58.711Z,72.4233
2018-07-01T06:32:03.592Z,72.4233
2018-07-01T06:33:08.205Z,72.9254
2018-07-01T06:34:13.511Z,73.6811
2018-07-01T06:35:18.704Z,72.6743
2018-07-01T06:36:23.571Z,72.9254
2018-07-01T06:37:29.240Z,73.179
2018-07-01T06:38:34.127Z,72.4233
2018-07-01T06:39:39.708Z,72.9254
2018-07-01T06:40:44.584Z,72.4233
2018-07-01T06:41:49.470Z,72.9254
2018-07-01T06:42:55.167Z,74.1831
2018-07-01T06:44:00.356Z,73.6811
2018-07-01T06:45:05.230Z,73.9321
2018-07-01T06:46:10.638Z,72.6743
2018-07-01T06:47:15.804Z,73.4301
2018-07-01T06:48:20.674Z,73.6811
2018-07-01T06:49:26.688Z,73.6811
2018-07-01T06:50:31.921Z,72.9254
2018-07-01T06:51:37.046Z,73.4301
2018-07-01T06:52:42.220Z,72.1723
2018-07-01T06:53:47.589Z,73.179
2018-07-01T06:54:52.998Z,72.9254
2018-07-01T06:55:58.153Z,73.179
2018-07-01T06:57:02.737Z,72.9254
2018-07-01T06:58:07.916Z,72.6743
2018-07-01T06:59:13.354Z,73.179
2018-07-01T07:00:18.262Z,73.4301
2018-07-01T07:01:23.670Z,72.9254
2018-07-01T07:02:29.090Z,73.4301
2018-07-01T07:03:34.565Z,72.9254
2018-07-01T07:04:39.455Z,72.4233
2018-07-01T07:05:44.626Z,71.9213
2018-07-01T07:06:50.023Z,73.179
2018-07-01T07:07:55.273Z,72.9254
2018-07-01T07:09:00.456Z,72.6743
2018-07-01T07:10:06.021Z,72.6743
2018-07-01T07:11:11.473Z,72.6743
2018-07-01T07:12:16.351Z,72.6743
2018-07-01T07:13:22.147Z,72.9254
2018-07-01T07:14:27.313Z,73.179
2018-07-01T07:15:32.436Z,72.6743
2018-07-01T07:16:37.605Z,73.4301
2018-07-01T07:17:43.056Z,72.4233
2018-07-01T07:18:48.182Z,73.6811
2018-07-01T07:19:53.669Z,73.6811
2018-07-01T07:20:59.108Z,73.9321
2018-07-01T07:22:04.384Z,74.1012
2018-07-01T07:23:09.545Z,74.1012
2018-07-01T07:24:14.429Z,73.4301
2018-07-01T07:25:20.406Z,73.9321
2018-07-01T07:26:25.010Z,73.8475
2018-07-01T07:27:30.575Z,73.4301
2018-07-01T07:28:36.023Z,73.6811
2018-07-01T07:29:40.897Z,73.9321
2018-07-01T07:30:46.693Z,74.3522
2018-07-01T07:31:52.140Z,73.179
2018-07-01T07:32:57.363Z,74.1012
2018-07-01T07:34:02.239Z,73.8475
2018-07-01T07:35:06.548Z,73.6811
2018-07-01T07:36:11.422Z,73.4301
2018-07-01T07:37:16.849Z,73.8475
2018-07-01T07:38:21.732Z,74.3522
2018-07-01T07:39:27.398Z,74.6032
2018-07-01T07:40:32.570Z,74.1012
2018-07-01T07:41:38.022Z,74.6032
2018-07-01T07:42:43.442Z,72.9254
2018-07-01T07:43:48.601Z,73.8475
2018-07-01T07:44:53.983Z,74.3522
2018-07-01T07:45:59.580Z,75.1053
2018-07-01T07:47:05.024Z,74.6032
2018-07-01T07:48:10.183Z,74.1012
2018-07-01T07:49:16.045Z,73.8475
2018-07-01T07:50:21.527Z,74.6032
2018-07-01T07:51:27.375Z,74.8543
2018-07-01T07:52:32.268Z,74.3522
2018-07-01T07:53:37.433Z,74.8543
2018-07-01T07:54:42.817Z,74.3522
2018-07-01T07:55:47.969Z,75.3589
2018-07-01T07:56:53.421Z,73.8475
2018-07-01T07:57:59.255Z,74.3522
2018-07-01T07:59:03.594Z,74.1012
2018-07-01T08:00:08.475Z,74.1012
2018-07-01T08:01:13.426Z,75.61
2018-07-01T08:02:18.320Z,75.3589
2018-07-01T08:03:23.470Z,75.1053
2018-07-01T08:04:29.132Z,74.8543
2018-07-01T08:05:34.646Z,74.3522
2018-07-01T08:06:40.222Z,72.6743
2018-07-01T08:07:44.813Z,73.8475
2018-07-01T08:08:49.977Z,74.1012
2018-07-01T08:09:55.498Z,73.4301
2018-07-01T08:11:00.664Z,73.8475
2018-07-01T08:12:05.572Z,74.3522
2018-07-01T08:13:11.729Z,73.5965
2018-07-01T08:14:16.625Z,73.4301
2018-07-01T08:15:21.497Z,73.5965
2018-07-01T08:16:41.563Z,73.5965
2018-07-01T08:17:46.150Z,73.5965
2018-07-01T08:18:51.985Z,72.9254
2018-07-01T08:19:57.156Z,73.4301
2018-07-01T08:21:02.346Z,74.1012
2018-07-01T08:22:07.246Z,73.8475
2018-07-01T08:23:12.692Z,73.5965
2018-07-01T08:24:18.165Z,73.4301
2018-07-01T08:25:23.385Z,72.9254
2018-07-01T08:26:28.837Z,73.8475
2018-07-01T08:27:34.392Z,71.9213
2018-07-01T08:28:39.856Z,73.179
2018-07-01T08:29:45.303Z,72.9254
2018-07-01T08:30:50.820Z,72.6743
2018-07-01T08:31:55.411Z,73.4301
2018-07-01T08:33:00.858Z,73.179
2018-07-01T08:34:05.706Z,73.179
2018-07-01T08:35:10.597Z,72.4233
2018-07-01T08:36:15.783Z,73.179
2018-07-01T08:37:21.470Z,72.4233
2018-07-01T08:38:26.638Z,72.9254
2018-07-01T08:39:32.431Z,73.179
2018-07-01T08:40:37.877Z,72.1723
2018-07-01T08:41:43.023Z,72.6743
2018-07-01T08:42:48.530Z,74.1012
2018-07-01T08:43:53.694Z,73.8475
2018-07-01T08:44:58.563Z,73.3455
2018-07-01T08:46:03.841Z,73.3455
2018-07-01T08:47:08.713Z,74.3522
2018-07-01T08:48:13.599Z,74.3522
2018-07-01T08:49:19.026Z,73.5965
2018-07-01T08:50:23.907Z,73.5965
2018-07-01T08:51:29.556Z,72.9254
2018-07-01T08:52:35.434Z,74.3522
2018-07-01T08:53:40.945Z,73.8475
2018-07-01T08:54:46.618Z,73.8475
2018-07-01T08:55:51.802Z,73.179
2018-07-01T08:56:56.676Z,73.3455
2018-07-01T08:58:01.944Z,73.3455
2018-07-01T08:59:06.545Z,73.8475
2018-07-01T09:00:11.867Z,73.3455
2018-07-01T09:01:17.658Z,74.1012
2018-07-01T09:02:22.828Z,73.8475
2018-07-01T09:03:28.236Z,73.8475
2018-07-01T09:04:33.408Z,73.8475
2018-07-01T09:05:38.577Z,72.9254
2018-07-01T09:06:43.867Z,74.3522
2018-07-01T09:07:49.037Z,71.9213
2018-07-01T09:08:54.316Z,72.9254
2018-07-01T09:10:00.163Z,73.3455
2018-07-01T09:11:05.068Z,73.8475
2018-07-01T09:12:10.229Z,74.1012
2018-07-01T09:13:16.071Z,73.3455
2018-07-01T09:14:20.984Z,73.5965
2018-07-01T09:15:40.773Z,73.3455
2018-07-01T09:16:45.945Z,73.3455
2018-07-01T09:17:51.417Z,73.5965
2018-07-01T09:18:56.415Z,74.3522
2018-07-01T09:20:01.583Z,74.3522
2018-07-01T09:21:06.739Z,73.8475
2018-07-01T09:22:12.479Z,73.8475
2018-07-01T09:23:17.928Z,73.8475
2018-07-01T09:24:23.367Z,75.61
2018-07-01T09:25:29.121Z,75.1053
2018-07-01T09:26:34.287Z,73.8475
2018-07-01T09:27:39.279Z,75.3589
2018-07-01T09:28:44.173Z,75.3589
2018-07-01T09:29:49.060Z,76.0275
2018-07-01T09:30:54.675Z,75.3589
2018-07-01T09:31:59.835Z,75.1053
2018-07-01T09:33:04.776Z,75.1053
2018-07-01T09:34:10.294Z,74.8543
2018-07-01T09:35:15.735Z,75.3589
2018-07-01T09:36:21.170Z,74.8543
2018-07-01T09:37:26.633Z,74.3522
2018-07-01T09:38:31.527Z,74.3522
2018-07-01T09:39:37.073Z,73.0945
2018-07-01T09:40:42.224Z,74.8543
2018-07-01T09:41:47.678Z,74.6032
2018-07-01T09:42:53.244Z,74.6032
2018-07-01T09:43:57.841Z,74.1012
2018-07-01T09:45:02.171Z,75.1053
2018-07-01T09:46:06.841Z,75.5254
2018-07-01T09:47:12.303Z,75.7764
2018-07-01T09:48:17.746Z,75.5254
2018-07-01T09:49:23.159Z,75.1053
2018-07-01T09:50:29.430Z,75.5254
2018-07-01T09:51:35.703Z,75.2744
2018-07-01T09:52:40.783Z,75.7764
2018-07-01T09:53:45.952Z,75.7764
2018-07-01T09:54:51.643Z,75.1053
2018-07-01T09:55:56.813Z,75.7764
2018-07-01T09:57:01.701Z,75.0234
2018-07-01T09:58:07.395Z,75.7764
2018-07-01T09:59:12.563Z,76.0275
2018-07-01T10:00:17.733Z,75.5254
2018-07-01T10:01:23.428Z,75.7764
2018-07-01T10:02:28.861Z,76.0275
2018-07-01T10:03:34.298Z,75.0234
2018-07-01T10:04:39.451Z,76.0275
2018-07-01T10:05:44.627Z,75.7764
2018-07-01T10:06:50.474Z,75.2744
2018-07-01T10:07:55.104Z,75.0234
2018-07-01T10:09:00.542Z,75.5254
2018-07-01T10:10:05.958Z,76.0275
2018-07-01T10:11:11.137Z,75.7764
2018-07-01T10:12:16.575Z,75.2744
2018-07-01T10:13:21.719Z,76.7831
2018-07-01T10:14:26.882Z,75.7764
2018-07-01T10:15:32.674Z,76.0275
2018-07-01T10:16:38.131Z,74.6032
2018-07-01T10:17:43.000Z,73.5965
2018-07-01T10:18:48.317Z,76.2811
2018-07-01T10:19:53.593Z,76.2811
2018-07-01T10:20:58.747Z,76.2811
2018-07-01T10:22:03.331Z,75.2744
2018-07-01T10:23:08.197Z,75.2744
2018-07-01T10:24:13.360Z,75.5254
2018-07-01T10:25:18.810Z,75.5254
2018-07-01T10:26:23.979Z,75.5254
2018-07-01T10:27:29.119Z,75.0234
2018-07-01T10:28:34.273Z,75.0234
2018-07-01T10:29:39.451Z,75.0234
2018-07-01T10:30:44.575Z,73.8475
2018-07-01T10:31:49.460Z,75.0234
2018-07-01T10:32:54.619Z,75.5254
2018-07-01T10:34:00.326Z,75.0234
2018-07-01T10:35:05.770Z,76.0275
2018-07-01T10:36:10.668Z,75.7764
2018-07-01T10:37:16.066Z,74.5187
2018-07-01T10:38:21.230Z,76.0275
2018-07-01T10:39:41.114Z,74.2677
2018-07-01T10:40:46.561Z,75.5254
2018-07-01T10:41:51.720Z,75.7764
2018-07-01T10:42:57.418Z,75.5254
2018-07-01T10:44:02.589Z,76.0275
2018-07-01T10:45:07.758Z,76.9523
2018-07-01T10:46:12.613Z,76.2811
2018-07-01T10:47:17.209Z,76.5321
2018-07-01T10:48:22.655Z,77.4543
2018-07-01T10:49:28.457Z,76.2811
2018-07-01T10:50:33.907Z,76.5321
2018-07-01T10:51:39.054Z,75.7764
2018-07-01T10:52:44.714Z,76.0275
2018-07-01T10:53:49.320Z,75.2744
2018-07-01T10:54:54.903Z,76.0275
2018-07-01T10:56:00.070Z,76.2811
2018-07-01T10:57:04.989Z,76.0275
2018-07-01T10:58:10.395Z,77.4543
2018-07-01T10:59:15.555Z,77.7053
2018-07-01T11:00:20.740Z,76.2811
2018-07-01T11:01:26.526Z,76.9523
2018-07-01T11:02:31.961Z,77.7053
2018-07-01T11:03:37.844Z,77.2033
2018-07-01T11:04:43.014Z,76.9523
2018-07-01T11:05:47.883Z,77.7053
2018-07-01T11:06:53.438Z,77.9563
2018-07-01T11:07:58.893Z,76.9523
2018-07-01T11:09:04.043Z,77.4543
2018-07-01T11:10:09.736Z,76.9523
2018-07-01T11:11:15.207Z,76.9523
2018-07-01T11:12:19.815Z,76.9523
2018-07-01T11:13:25.506Z,76.6986
2018-07-01T11:14:30.665Z,76.9523
2018-07-01T11:15:36.400Z,77.7053
2018-07-01T11:16:41.286Z,78.461
2018-07-01T11:17:46.187Z,78.712
2018-07-01T11:18:51.694Z,78.461
2018-07-01T11:19:56.584Z,79.1322
2018-07-01T11:21:01.730Z,77.9563
2018-07-01T11:22:06.700Z,79.3832
2018-07-01T11:23:11.610Z,80.1389
2018-07-01T11:24:17.066Z,79.8879
2018-07-01T11:25:22.675Z,80.6409
2018-07-01T11:26:27.830Z,79.1322
2018-07-01T11:27:34.446Z,79.8879
2018-07-01T11:28:40.338Z,78.6275
2018-07-01T11:29:45.244Z,79.1322
2018-07-01T11:30:50.713Z,79.6342
2018-07-01T11:31:55.608Z,79.8879
2018-07-01T11:33:01.066Z,79.8879
2018-07-01T11:34:05.902Z,80.1389
2018-07-01T11:35:11.611Z,80.8946
2018-07-01T11:36:16.703Z,80.3899
2018-07-01T11:37:22.606Z,80.8946
2018-07-01T11:38:27.792Z,80.8946
2018-07-01T11:39:32.749Z,81.3121
2018-07-01T11:40:38.212Z,81.5631
2018-07-01T11:41:43.659Z,80.6409
2018-07-01T11:42:49.236Z,80.8946
2018-07-01T11:43:54.684Z,81.1456
2018-07-01T11:44:59.854Z,82.0678
2018-07-01T11:46:04.989Z,80.8946
2018-07-01T11:47:10.425Z,81.5631
2018-07-01T11:48:16.201Z,80.6409
2018-07-01T11:49:21.442Z,80.8946
2018-07-01T11:50:26.606Z,81.0611
2018-07-01T11:51:32.187Z,81.3121
2018-07-01T11:52:37.361Z,80.6409
2018-07-01T11:53:42.242Z,81.5631
2018-07-01T11:54:47.673Z,81.8168
2018-07-01T11:55:51.972Z,82.3188
2018-07-01T11:56:57.137Z,82.0678
2018-07-01T11:58:02.597Z,82.3188
2018-07-01T11:59:08.070Z,80.6409
2018-07-01T12:00:13.229Z,82.0678
2018-07-01T12:01:19.079Z,80.3899
2018-07-01T12:02:24.540Z,81.5631
2018-07-01T12:03:30.139Z,82.5698
2018-07-01T12:04:35.602Z,82.0678
2018-07-01T12:05:41.037Z,82.7389
2018-07-01T12:06:47.178Z,82.7389
2018-07-01T12:07:52.053Z,81.8168
2018-07-01T12:08:57.523Z,83.4946
2018-07-01T12:10:02.428Z,82.5698
2018-07-01T12:11:07.032Z,82.7389
2018-07-01T12:12:12.190Z,82.99
2018-07-01T12:13:16.930Z,84.4168
2018-07-01T12:14:21.517Z,83.6611
2018-07-01T12:15:27.115Z,83.9148
2018-07-01T12:16:32.012Z,83.9148
2018-07-01T12:17:36.363Z,83.4946
2018-07-01T12:18:42.166Z,83.4946
2018-07-01T12:19:47.333Z,82.0678
2018-07-01T12:20:52.524Z,83.4946
2018-07-01T12:21:57.936Z,84.1658
2018-07-01T12:23:03.120Z,83.6611
2018-07-01T12:24:07.730Z,83.6611
2018-07-01T12:25:13.444Z,84.4168
2018-07-01T12:26:18.879Z,84.1658
2018-07-01T12:27:24.703Z,84.4168
2018-07-01T12:28:29.849Z,84.6678
2018-07-01T12:29:34.440Z,82.7389
2018-07-01T12:30:39.595Z,82.5698
2018-07-01T12:31:44.763Z,84.1658
2018-07-01T12:32:49.631Z,84.1658
2018-07-01T12:33:54.852Z,84.4168
2018-07-01T12:35:00.298Z,84.1658
2018-07-01T12:36:05.187Z,84.4168
2018-07-01T12:37:10.027Z,84.1658
2018-07-01T12:38:14.938Z,83.6611
2018-07-01T12:39:20.097Z,84.9215
2018-07-01T12:40:25.576Z,84.4168
2018-07-01T12:41:30.759Z,85.1725
2018-07-01T12:42:35.599Z,84.9215
2018-07-01T12:43:40.777Z,85.1725
2018-07-01T12:44:46.239Z,84.6678
2018-07-01T12:45:51.731Z,84.4168
2018-07-01T12:46:56.899Z,84.4168
2018-07-01T12:48:02.063Z,84.6678
2018-07-01T12:49:07.760Z,85.1725
2018-07-01T12:50:13.202Z,84.6678
2018-07-01T12:51:18.368Z,84.9215
2018-07-01T12:52:23.238Z,84.6678
2018-07-01T12:53:28.401Z,83.9148
2018-07-01T12:54:33.414Z,83.9148
2018-07-01T12:55:38.018Z,84.6678
2018-07-01T12:56:43.178Z,84.6678
2018-07-01T12:57:48.454Z,84.6678
2018-07-01T12:58:53.628Z,85.6772
2018-07-01T12:59:58.508Z,86.0947
2018-07-01T13:01:03.451Z,85.1725
2018-07-01T13:02:08.036Z,85.1725
2018-07-01T13:03:12.922Z,85.1725
2018-07-01T13:04:18.450Z,84.9215
2018-07-01T13:05:23.962Z,85.4235
2018-07-01T13:06:29.855Z,85.8437
2018-07-01T13:07:35.026Z,86.5994
2018-07-01T13:08:40.043Z,85.1725
2018-07-01T13:09:45.509Z,85.4235
2018-07-01T13:10:50.983Z,86.3484
2018-07-01T13:11:56.335Z,85.1725